Time;durP1;ratioP1;P1;durP2;ratioP2;P2;SDS_P1;SDS_P2;PMS_P1;PMS_P2;Temp;Humidity;BMP_temperature;BMP_pressure;BME280_temperature;BME280_humidity;BME280_pressure;Samples;Min_cycle;Max_cycle;Signal;HPM_P1;HPM_P2
2023/06/28 00:01:20;;;;;;;12.20;5.28;;;;;;;;;;4906765;28;20047;-75
2023/06/28 00:03:47;;;;;;;17.65;4.97;;;;;;;;;;4906209;28;20150;-76
2023/06/28 00:06:13;;;;;;;13.07;5.25;;;;;;;;;;4910792;28;20050;-76
2023/06/28 00:08:42;;;;;;;14.98;5.18;;;;;;;;;;4905247;28;20672;-76
2023/06/28 00:11:09;;;;;;;12.07;5.47;;;;;;;;;;4903387;28;20058;-76
2023/06/28 00:13:36;;;;;;;12.48;5.13;;;;;;;;;;4903845;28;20125;-75
2023/06/28 00:16:02;;;;;;;11.25;5.13;;;;;;;;;;4907261;28;22108;-76
2023/06/28 00:18:29;;;;;;;12.88;5.20;;;;;;;;;;4912496;28;20492;-76
2023/06/28 00:20:55;;;;;;;14.48;6.35;;;;;;;;;;4905136;29;20063;-75
2023/06/28 00:23:22;;;;;;;10.10;5.80;;;;;;;;;;4893396;29;20073;-76
2023/06/28 00:25:48;;;;;;;14.02;4.88;;;;;;;;;;4896145;29;20035;-76
2023/06/28 00:28:14;;;;;;;18.30;5.57;;;;;;;;;;4902751;28;20043;-76
2023/06/28 00:30:40;;;;;;;19.75;6.35;;;;;;;;;;4920163;28;20053;-76
2023/06/28 00:33:06;;;;;;;16.27;4.97;;;;;;;;;;4904343;28;21120;-75
2023/06/28 00:35:32;;;;;;;14.80;5.55;;;;;;;;;;4918791;28;21958;-75
2023/06/28 00:37:58;;;;;;;15.20;5.30;;;;;;;;;;4888722;28;20048;-75
2023/06/28 00:40:24;;;;;;;11.40;5.28;;;;;;;;;;4923282;28;20135;-75
2023/06/28 00:42:50;;;;;;;16.20;5.07;;;;;;;;;;4889593;28;20059;-75
2023/06/28 00:45:16;;;;;;;11.05;5.40;;;;;;;;;;4918898;28;20062;-76
2023/06/28 00:47:43;;;;;;;11.55;5.45;;;;;;;;;;4903734;28;20153;-75
2023/06/28 00:50:09;;;;;;;15.05;5.47;;;;;;;;;;4902354;28;20889;-76
2023/06/28 00:52:36;;;;;;;14.40;5.47;;;;;;;;;;4905019;28;20137;-76
2023/06/28 00:55:03;;;;;;;15.23;5.25;;;;;;;;;;4904733;28;20089;-75
2023/06/28 00:57:29;;;;;;;12.65;4.50;;;;;;;;;;4906465;29;20058;-75
2023/06/28 00:59:56;;;;;;;14.38;5.10;;;;;;;;;;4902353;28;20046;-76
2023/06/28 01:02:22;;;;;;;13.38;4.72;;;;;;;;;;4905870;29;20047;-76
2023/06/28 01:04:49;;;;;;;12.80;4.90;;;;;;;;;;4905555;28;20075;-75
2023/06/28 01:07:16;;;;;;;12.43;5.03;;;;;;;;;;4924231;28;20794;-75
2023/06/28 01:09:42;;;;;;;9.90;4.57;;;;;;;;;;4907132;28;20097;-76
2023/06/28 01:12:09;;;;;;;11.57;5.05;;;;;;;;;;4907087;29;20043;-75
2023/06/28 01:14:35;;;;;;;12.82;5.07;;;;;;;;;;4925456;28;20039;-74
2023/06/28 01:17:01;;;;;;;12.13;5.38;;;;;;;;;;4919148;28;20055;-75
2023/06/28 01:19:27;;;;;;;14.13;5.47;;;;;;;;;;4916890;28;20066;-74
2023/06/28 01:22:02;;;;;;;14.43;5.07;;;;;;;;;;4935039;28;20066;-75
2023/06/28 01:24:28;;;;;;;13.32;5.63;;;;;;;;;;4937095;28;20074;-75
2023/06/28 01:26:58;;;;;;;12.77;5.32;;;;;;;;;;4921510;28;21523;-75
2023/06/28 01:29:24;;;;;;;12.20;5.22;;;;;;;;;;4927347;28;20051;-76
2023/06/28 01:31:51;;;;;;;12.10;5.13;;;;;;;;;;4883212;28;20040;-76
2023/06/28 01:34:17;;;;;;;13.25;5.40;;;;;;;;;;4920956;28;20181;-76
2023/06/28 01:36:44;;;;;;;15.00;5.22;;;;;;;;;;4905537;28;20134;-76
2023/06/28 01:39:10;;;;;;;12.07;4.95;;;;;;;;;;4920656;28;20048;-74
2023/06/28 01:41:37;;;;;;;13.10;5.18;;;;;;;;;;4918953;28;20062;-75
2023/06/28 01:44:03;;;;;;;13.93;5.10;;;;;;;;;;4920725;28;20046;-75
2023/06/28 01:46:30;;;;;;;13.40;5.18;;;;;;;;;;4917318;28;20053;-75
2023/06/28 01:48:57;;;;;;;8.90;5.20;;;;;;;;;;4903561;28;20052;-75
2023/06/28 01:51:23;;;;;;;13.10;5.00;;;;;;;;;;4909033;29;20043;-75
2023/06/28 01:53:49;;;;;;;14.93;5.93;;;;;;;;;;4903682;29;20162;-75
2023/06/28 01:56:15;;;;;;;14.18;5.25;;;;;;;;;;4901056;28;20079;-76
2023/06/28 01:58:41;;;;;;;14.18;5.40;;;;;;;;;;4901662;29;20178;-76
2023/06/28 02:01:07;;;;;;;12.85;5.78;;;;;;;;;;4903343;28;20514;-76
2023/06/28 02:03:33;;;;;;;11.15;5.28;;;;;;;;;;4900469;28;20063;-75
2023/06/28 02:05:59;;;;;;;16.00;6.18;;;;;;;;;;4902891;28;20713;-75
2023/06/28 02:08:26;;;;;;;32.63;6.03;;;;;;;;;;4902861;28;20062;-74
2023/06/28 02:10:52;;;;;;;8.82;5.38;;;;;;;;;;4902873;29;20444;-75
2023/06/28 02:13:18;;;;;;;17.30;5.93;;;;;;;;;;4902995;28;20039;-75
2023/06/28 02:15:44;;;;;;;12.52;5.88;;;;;;;;;;4902106;29;20431;-75
2023/06/28 02:18:10;;;;;;;12.13;5.72;;;;;;;;;;4897767;28;20047;-75
2023/06/28 02:20:36;;;;;;;16.20;6.03;;;;;;;;;;4894788;29;20182;-75
2023/06/28 02:23:02;;;;;;;13.57;5.65;;;;;;;;;;4905288;29;20051;-75
2023/06/28 02:25:28;;;;;;;15.25;6.32;;;;;;;;;;4918040;28;20047;-75
2023/06/28 02:27:54;;;;;;;17.63;5.65;;;;;;;;;;4898673;29;20050;-75
2023/06/28 02:30:20;;;;;;;18.60;6.65;;;;;;;;;;4885844;28;20043;-75
2023/06/28 02:32:47;;;;;;;16.48;6.25;;;;;;;;;;4920837;28;20047;-76
2023/06/28 02:35:13;;;;;;;11.45;5.90;;;;;;;;;;4923471;28;20054;-74
2023/06/28 02:37:39;;;;;;;15.68;6.32;;;;;;;;;;4923246;28;20042;-75
2023/06/28 02:40:05;;;;;;;13.63;5.93;;;;;;;;;;4905668;28;20043;-76
2023/06/28 02:42:31;;;;;;;15.55;6.82;;;;;;;;;;4904328;29;20568;-75
2023/06/28 02:44:57;;;;;;;11.27;5.72;;;;;;;;;;4894518;29;20048;-75
2023/06/28 02:47:23;;;;;;;15.32;6.45;;;;;;;;;;4903230;28;20090;-75
2023/06/28 02:49:50;;;;;;;15.88;7.03;;;;;;;;;;4906818;28;20039;-75
2023/06/28 02:52:16;;;;;;;14.65;6.25;;;;;;;;;;4920985;28;20082;-75
2023/06/28 02:54:42;;;;;;;12.35;6.22;;;;;;;;;;4903239;29;20067;-76
2023/06/28 02:57:10;;;;;;;10.35;5.82;;;;;;;;;;4905378;28;20066;-74
2023/06/28 02:59:36;;;;;;;13.38;5.72;;;;;;;;;;4903931;29;20130;-76
2023/06/28 03:02:05;;;;;;;15.32;6.30;;;;;;;;;;4901914;28;20051;-74
2023/06/28 03:04:32;;;;;;;14.18;6.65;;;;;;;;;;4919173;28;20071;-74
2023/06/28 03:06:59;;;;;;;16.75;6.78;;;;;;;;;;4906203;28;20060;-75
2023/06/28 03:09:25;;;;;;;13.80;6.03;;;;;;;;;;4901310;29;21296;-76
2023/06/28 03:11:51;;;;;;;16.58;6.53;;;;;;;;;;4900597;29;22627;-75
2023/06/28 03:14:17;;;;;;;21.60;6.63;;;;;;;;;;4901893;29;20058;-76
2023/06/28 03:16:43;;;;;;;16.60;6.82;;;;;;;;;;4903043;28;20082;-75
2023/06/28 03:19:11;;;;;;;15.02;6.25;;;;;;;;;;4902621;28;20055;-75
2023/06/28 03:21:38;;;;;;;15.23;6.63;;;;;;;;;;4889468;29;20067;-76
2023/06/28 03:24:04;;;;;;;16.85;7.07;;;;;;;;;;4886298;28;20162;-76
2023/06/28 03:26:30;;;;;;;14.82;6.28;;;;;;;;;;4893112;28;20074;-75
2023/06/28 03:28:58;;;;;;;11.32;6.03;;;;;;;;;;4916888;28;20047;-75
2023/06/28 03:31:24;;;;;;;14.75;6.40;;;;;;;;;;4918445;28;20051;-75
2023/06/28 03:33:50;;;;;;;11.98;5.95;;;;;;;;;;4903151;28;20058;-75
2023/06/28 03:36:16;;;;;;;14.18;7.05;;;;;;;;;;4900793;29;20047;-75
2023/06/28 03:38:43;;;;;;;18.92;6.30;;;;;;;;;;4903231;28;20051;-75
2023/06/28 03:41:09;;;;;;;15.88;6.53;;;;;;;;;;4921328;28;20776;-75
2023/06/28 03:43:35;;;;;;;15.15;6.63;;;;;;;;;;4901491;28;20048;-75
2023/06/28 03:46:01;;;;;;;17.00;6.55;;;;;;;;;;4894984;28;20130;-75
2023/06/28 03:48:27;;;;;;;15.60;5.85;;;;;;;;;;4918020;28;20121;-75
2023/06/28 03:50:53;;;;;;;13.63;6.70;;;;;;;;;;4899745;28;20047;-75
2023/06/28 03:53:19;;;;;;;12.25;6.18;;;;;;;;;;4916923;28;20240;-75
2023/06/28 03:55:45;;;;;;;18.15;6.78;;;;;;;;;;4900302;28;20059;-75
2023/06/28 03:58:12;;;;;;;10.75;5.68;;;;;;;;;;4903592;29;20075;-76
2023/06/28 04:00:38;;;;;;;13.38;6.15;;;;;;;;;;4899961;29;20054;-75
2023/06/28 04:03:05;;;;;;;11.00;6.13;;;;;;;;;;4901132;29;20669;-75
2023/06/28 04:05:31;;;;;;;14.85;5.85;;;;;;;;;;4904953;29;20055;-75
2023/06/28 04:07:58;;;;;;;13.80;5.90;;;;;;;;;;4911993;29;20158;-75
2023/06/28 04:10:25;;;;;;;23.63;6.03;;;;;;;;;;4891486;29;20078;-75
2023/06/28 04:12:51;;;;;;;14.95;6.00;;;;;;;;;;4894552;28;20506;-75
2023/06/28 04:15:17;;;;;;;12.25;5.70;;;;;;;;;;4911722;29;20055;-76
2023/06/28 04:17:43;;;;;;;12.68;5.72;;;;;;;;;;4907139;28;20083;-75
2023/06/28 04:20:10;;;;;;;14.63;6.25;;;;;;;;;;4924050;28;20104;-76
2023/06/28 04:22:36;;;;;;;18.70;6.15;;;;;;;;;;4911962;28;20102;-76
2023/06/28 04:25:03;;;;;;;15.50;6.20;;;;;;;;;;4906714;28;20150;-75
2023/06/28 04:27:29;;;;;;;12.85;6.10;;;;;;;;;;4907423;28;20039;-74
2023/06/28 04:29:55;;;;;;;15.48;6.65;;;;;;;;;;4888634;29;20139;-76
2023/06/28 04:32:22;;;;;;;14.55;7.28;;;;;;;;;;4921059;28;20051;-75
2023/06/28 04:34:52;;;;;;;15.63;6.70;;;;;;;;;;4901640;29;20046;-74
2023/06/28 04:37:18;;;;;;;19.88;6.72;;;;;;;;;;4919840;28;20051;-75
2023/06/28 04:39:44;;;;;;;11.57;6.57;;;;;;;;;;4920907;28;20167;-74
2023/06/28 04:42:11;;;;;;;21.17;6.93;;;;;;;;;;4921722;28;20047;-74
2023/06/28 04:44:41;;;;;;;17.63;6.45;;;;;;;;;;4919979;28;20049;-75
2023/06/28 04:47:07;;;;;;;13.68;7.68;;;;;;;;;;4905650;29;20122;-75
2023/06/28 04:49:34;;;;;;;14.30;6.75;;;;;;;;;;4904066;29;20083;-75
2023/06/28 04:52:00;;;;;;;15.20;6.72;;;;;;;;;;4888789;29;20054;-76
2023/06/28 04:54:27;;;;;;;13.05;5.82;;;;;;;;;;4903450;29;20063;-75
2023/06/28 04:56:53;;;;;;;14.73;6.75;;;;;;;;;;4919283;28;20058;-75
2023/06/28 04:59:19;;;;;;;16.20;5.82;;;;;;;;;;4922650;28;20035;-76
2023/06/28 05:01:45;;;;;;;13.77;5.95;;;;;;;;;;4904228;29;20099;-76
2023/06/28 05:04:11;;;;;;;12.35;5.45;;;;;;;;;;4915265;28;20043;-74
2023/06/28 05:06:37;;;;;;;15.32;5.50;;;;;;;;;;4918432;28;20080;-74
2023/06/28 05:09:03;;;;;;;12.65;5.65;;;;;;;;;;4898773;28;20043;-75
2023/06/28 05:11:29;;;;;;;13.30;5.85;;;;;;;;;;4922164;28;20062;-75
2023/06/28 05:13:55;;;;;;;13.57;5.85;;;;;;;;;;4912976;28;20118;-75
2023/06/28 05:16:21;;;;;;;9.85;4.90;;;;;;;;;;4927862;28;20050;-75
2023/06/28 05:18:48;;;;;;;12.55;5.47;;;;;;;;;;4914986;28;20075;-75
2023/06/28 05:21:14;;;;;;;12.98;5.32;;;;;;;;;;4908469;29;20147;-74
2023/06/28 05:23:40;;;;;;;17.98;6.18;;;;;;;;;;4907238;29;20184;-75
2023/06/28 05:26:06;;;;;;;10.85;4.80;;;;;;;;;;4912907;28;20086;-71
2023/06/28 05:28:32;;;;;;;10.40;4.40;;;;;;;;;;4910433;28;20047;-74
2023/06/28 05:31:00;;;;;;;9.90;5.20;;;;;;;;;;4906364;28;20044;-73
2023/06/28 05:33:27;;;;;;;7.03;4.68;;;;;;;;;;4913056;29;20048;-74
2023/06/28 05:35:53;;;;;;;9.65;4.82;;;;;;;;;;4911240;29;20131;-74
2023/06/28 05:38:19;;;;;;;8.52;4.63;;;;;;;;;;4891054;29;20047;-75
2023/06/28 05:40:45;;;;;;;11.93;4.93;;;;;;;;;;4898851;29;20083;-75
2023/06/28 05:43:11;;;;;;;9.02;4.82;;;;;;;;;;4916533;28;20492;-74
2023/06/28 05:45:37;;;;;;;11.80;4.50;;;;;;;;;;4900991;29;20070;-75
2023/06/28 05:48:04;;;;;;;8.25;5.10;;;;;;;;;;4892064;29;20047;-74
2023/06/28 05:50:30;;;;;;;9.60;4.10;;;;;;;;;;4897394;28;20985;-74
2023/06/28 05:52:56;;;;;;;10.30;4.18;;;;;;;;;;4897047;28;20105;-73
2023/06/28 05:55:22;;;;;;;9.82;4.43;;;;;;;;;;4918556;28;20054;-76
2023/06/28 05:57:48;;;;;;;9.38;4.15;;;;;;;;;;4894789;28;20050;-75
2023/06/28 06:00:14;;;;;;;9.18;4.60;;;;;;;;;;4906984;28;20078;-74
2023/06/28 06:02:41;;;;;;;15.25;4.63;;;;;;;;;;4905723;28;21046;-74
2023/06/28 06:05:07;;;;;;;8.45;4.35;;;;;;;;;;4902103;28;20050;-74
2023/06/28 06:07:35;;;;;;;9.20;3.75;;;;;;;;;;4920652;28;20085;-75
2023/06/28 06:10:01;;;;;;;8.20;4.10;;;;;;;;;;4904880;28;20531;-74
2023/06/28 06:12:28;;;;;;;9.25;3.78;;;;;;;;;;4913352;29;20082;-74
2023/06/28 06:14:56;;;;;;;10.50;5.15;;;;;;;;;;4906201;29;20039;-74
2023/06/28 06:17:22;;;;;;;5.80;3.75;;;;;;;;;;4892134;29;20058;-75
2023/06/28 06:19:48;;;;;;;6.60;3.83;;;;;;;;;;4907785;29;20119;-75
2023/06/28 06:22:15;;;;;;;9.60;4.80;;;;;;;;;;4905766;29;20125;-75
2023/06/28 06:24:41;;;;;;;5.93;4.00;;;;;;;;;;4906384;29;20047;-74
2023/06/28 06:27:07;;;;;;;10.93;4.50;;;;;;;;;;4907241;29;20554;-75
2023/06/28 06:29:33;;;;;;;9.77;4.85;;;;;;;;;;4924914;28;20047;-75
2023/06/28 06:31:59;;;;;;;6.30;3.70;;;;;;;;;;4904028;29;20071;-75
2023/06/28 06:34:26;;;;;;;7.55;4.35;;;;;;;;;;4920450;28;20039;-75
2023/06/28 06:36:54;;;;;;;10.00;4.20;;;;;;;;;;4905085;28;20043;-75
2023/06/28 06:39:20;;;;;;;8.10;4.00;;;;;;;;;;4903671;29;20058;-75
2023/06/28 06:41:47;;;;;;;6.05;4.13;;;;;;;;;;4922921;28;20047;-75
2023/06/28 06:44:13;;;;;;;7.38;3.70;;;;;;;;;;4921738;28;20051;-74
2023/06/28 06:46:39;;;;;;;7.40;3.42;;;;;;;;;;4912021;29;20097;-74
2023/06/28 06:49:05;;;;;;;7.15;3.50;;;;;;;;;;4902625;29;20106;-75
2023/06/28 06:51:31;;;;;;;4.82;3.45;;;;;;;;;;4904423;29;20051;-75
2023/06/28 06:53:57;;;;;;;6.03;3.72;;;;;;;;;;4904755;28;20079;-75
2023/06/28 06:56:23;;;;;;;6.00;3.38;;;;;;;;;;4904158;29;20275;-73
2023/06/28 06:58:49;;;;;;;11.35;3.80;;;;;;;;;;4919934;28;20081;-76
2023/06/28 07:01:16;;;;;;;9.30;3.78;;;;;;;;;;4903806;28;20074;-76
2023/06/28 07:03:42;;;;;;;6.00;3.20;;;;;;;;;;4902524;28;20043;-75
2023/06/28 07:06:08;;;;;;;11.27;3.88;;;;;;;;;;4923442;28;20051;-74
2023/06/28 07:08:35;;;;;;;9.93;3.60;;;;;;;;;;4910014;28;20193;-76
2023/06/28 07:11:02;;;;;;;11.05;3.45;;;;;;;;;;4905560;28;20062;-74
2023/06/28 07:13:28;;;;;;;6.40;3.45;;;;;;;;;;4922507;28;20047;-74
2023/06/28 07:15:54;;;;;;;4.93;3.10;;;;;;;;;;4920603;28;20163;-75
2023/06/28 07:18:20;;;;;;;7.93;3.20;;;;;;;;;;4904743;28;20043;-75
2023/06/28 07:20:46;;;;;;;6.75;3.30;;;;;;;;;;4903409;28;20055;-75
2023/06/28 07:23:12;;;;;;;8.68;3.30;;;;;;;;;;4913630;28;20496;-74
2023/06/28 07:25:38;;;;;;;8.90;3.35;;;;;;;;;;4923920;28;20134;-74
2023/06/28 07:28:05;;;;;;;12.27;3.28;;;;;;;;;;4922141;28;20051;-75
2023/06/28 07:30:50;;;;;;;7.07;3.45;;;;;;;;;;4898395;28;20051;-74
2023/06/28 07:33:16;;;;;;;5.50;3.22;;;;;;;;;;4915562;29;20058;-75
2023/06/28 07:35:42;;;;;;;9.07;3.50;;;;;;;;;;4906477;29;20444;-74
2023/06/28 07:38:08;;;;;;;9.45;3.65;;;;;;;;;;4909148;29;20118;-75
2023/06/28 07:40:34;;;;;;;5.72;3.38;;;;;;;;;;4897682;29;20050;-74
2023/06/28 07:43:02;;;;;;;12.43;4.68;;;;;;;;;;4910673;29;20043;-73
2023/06/28 07:45:29;;;;;;;8.88;4.10;;;;;;;;;;4908152;28;20103;-74
2023/06/28 07:47:55;;;;;;;10.77;5.05;;;;;;;;;;4925865;28;20047;-74
2023/06/28 07:50:22;;;;;;;8.63;4.43;;;;;;;;;;4909565;29;20138;-75
2023/06/28 07:52:48;;;;;;;9.25;5.20;;;;;;;;;;4894542;29;20053;-75
2023/06/28 07:55:14;;;;;;;6.75;4.90;;;;;;;;;;4910173;29;20631;-75
2023/06/28 07:57:40;;;;;;;10.45;5.25;;;;;;;;;;4927956;28;21949;-69
2023/06/28 08:00:07;;;;;;;8.43;5.20;;;;;;;;;;4926820;28;20048;-68
2023/06/28 08:02:33;;;;;;;10.85;5.72;;;;;;;;;;4927091;28;20047;-69
2023/06/28 08:04:59;;;;;;;13.05;5.55;;;;;;;;;;4904905;29;20625;-69
2023/06/28 08:07:25;;;;;;;7.85;5.75;;;;;;;;;;4908783;28;20082;-70
2023/06/28 08:09:51;;;;;;;10.05;5.53;;;;;;;;;;4914366;28;20943;-69
2023/06/28 08:12:18;;;;;;;9.75;5.80;;;;;;;;;;4908817;28;20177;-69
2023/06/28 08:14:44;;;;;;;11.90;6.18;;;;;;;;;;4925691;28;20080;-69
2023/06/28 08:17:10;;;;;;;11.50;6.13;;;;;;;;;;4926671;28;20062;-69
2023/06/28 08:19:36;;;;;;;12.70;6.38;;;;;;;;;;4914079;29;20091;-69
2023/06/28 08:22:03;;;;;;;11.75;6.15;;;;;;;;;;4906090;28;20131;-68
2023/06/28 08:24:29;;;;;;;13.45;6.68;;;;;;;;;;4921993;28;20583;-69
2023/06/28 08:26:55;;;;;;;11.43;6.82;;;;;;;;;;4924170;28;21232;-70
2023/06/28 08:29:22;;;;;;;12.02;6.75;;;;;;;;;;4909383;29;20062;-69
2023/06/28 08:31:49;;;;;;;8.65;6.38;;;;;;;;;;4926963;28;20090;-69
2023/06/28 08:34:18;;;;;;;12.57;7.20;;;;;;;;;;4926015;28;20138;-70
2023/06/28 08:36:44;;;;;;;15.35;6.90;;;;;;;;;;4906319;29;20321;-69
2023/06/28 08:39:10;;;;;;;14.38;8.27;;;;;;;;;;4909735;29;20050;-70
2023/06/28 08:41:37;;;;;;;14.00;7.68;;;;;;;;;;4897251;28;21582;-70
2023/06/28 08:44:05;;;;;;;28.23;9.93;;;;;;;;;;4925446;28;20048;-70
2023/06/28 08:46:31;;;;;;;26.05;8.35;;;;;;;;;;4924270;28;20211;-70
2023/06/28 08:48:58;;;;;;;17.35;8.15;;;;;;;;;;4909300;28;20126;-70
2023/06/28 08:51:25;;;;;;;11.77;7.80;;;;;;;;;;4907947;29;20039;-70
2023/06/28 08:53:52;;;;;;;11.98;8.10;;;;;;;;;;4926225;28;20040;-70
2023/06/28 08:56:18;;;;;;;13.48;8.30;;;;;;;;;;4925576;28;20048;-69
2023/06/28 08:58:48;;;;;;;9.38;7.30;;;;;;;;;;4925971;28;20047;-70
2023/06/28 09:01:14;;;;;;;11.07;8.80;;;;;;;;;;4925500;28;20036;-70
2023/06/28 09:03:42;;;;;;;10.75;7.50;;;;;;;;;;4927375;28;20145;-70
2023/06/28 09:06:08;;;;;;;15.25;8.30;;;;;;;;;;4925385;28;20031;-70
2023/06/28 09:08:34;;;;;;;13.70;7.78;;;;;;;;;;4914140;29;20094;-70
2023/06/28 09:11:01;;;;;;;10.13;7.70;;;;;;;;;;4938148;28;20058;-69
2023/06/28 09:13:30;;;;;;;10.55;7.63;;;;;;;;;;4921914;29;20046;-69
2023/06/28 09:15:57;;;;;;;13.77;7.70;;;;;;;;;;4929125;28;20455;-69
2023/06/28 09:18:23;;;;;;;12.20;7.85;;;;;;;;;;4912182;29;20134;-71
2023/06/28 09:20:50;;;;;;;18.73;7.70;;;;;;;;;;4929072;28;20067;-69
2023/06/28 09:23:23;;;;;;;9.93;8.43;;;;;;;;;;4922807;28;20043;-69
2023/06/28 09:25:49;;;;;;;14.23;8.67;;;;;;;;;;4922817;28;20054;-69
2023/06/28 09:28:15;;;;;;;14.30;9.70;;;;;;;;;;4912189;28;20043;-69
2023/06/28 09:30:42;;;;;;;13.68;9.65;;;;;;;;;;4905137;28;20051;-69
2023/06/28 09:33:08;;;;;;;18.48;9.80;;;;;;;;;;4923063;28;20058;-69
2023/06/28 09:35:39;;;;;;;15.50;9.25;;;;;;;;;;4922352;28;20095;-70
2023/06/28 09:38:08;;;;;;;21.83;9.85;;;;;;;;;;4920371;28;20047;-69
2023/06/28 09:40:35;;;;;;;12.52;9.50;;;;;;;;;;4922056;28;20099;-69
2023/06/28 09:43:01;;;;;;;12.48;8.88;;;;;;;;;;4918699;28;20047;-69
2023/06/28 09:45:32;;;;;;;12.30;8.45;;;;;;;;;;4904631;28;20055;-76
2023/06/28 09:48:02;;;;;;;11.63;8.23;;;;;;;;;;4896273;28;20051;-75
2023/06/28 09:50:38;;;;;;;12.07;8.18;;;;;;;;;;4905479;28;20051;-75
2023/06/28 09:53:08;;;;;;;11.05;8.35;;;;;;;;;;4901678;28;20059;-75
2023/06/28 09:55:37;;;;;;;12.38;8.05;;;;;;;;;;4906088;28;20047;-75
2023/06/28 09:58:03;;;;;;;17.15;8.45;;;;;;;;;;4909314;29;20043;-75
2023/06/28 10:00:31;;;;;;;12.90;8.40;;;;;;;;;;4894988;28;20051;-75
2023/06/28 10:02:59;;;;;;;13.23;8.55;;;;;;;;;;4910854;28;20054;-75
2023/06/28 10:05:27;;;;;;;13.82;8.48;;;;;;;;;;4922780;28;20099;-74
2023/06/28 10:07:53;;;;;;;11.88;8.35;;;;;;;;;;4907394;29;20181;-74
2023/06/28 10:10:19;;;;;;;16.35;9.25;;;;;;;;;;4908770;29;20134;-73
2023/06/28 10:12:46;;;;;;;11.73;8.35;;;;;;;;;;4883872;28;20071;-76
2023/06/28 10:15:16;;;;;;;13.65;8.25;;;;;;;;;;4925479;28;20054;-75
2023/06/28 10:17:43;;;;;;;13.65;8.48;;;;;;;;;;4909044;28;20047;-75
2023/06/28 10:20:10;;;;;;;12.77;8.77;;;;;;;;;;4925716;28;20051;-75
2023/06/28 10:22:37;;;;;;;11.48;8.55;;;;;;;;;;4901895;28;20071;-75
2023/06/28 10:25:04;;;;;;;12.27;8.23;;;;;;;;;;4925942;28;20050;-74
2023/06/28 10:27:33;;;;;;;11.80;8.75;;;;;;;;;;4899824;29;20071;-74
2023/06/28 10:30:00;;;;;;;12.93;8.73;;;;;;;;;;4906446;28;20047;-73
2023/06/28 10:32:27;;;;;;;14.05;9.35;;;;;;;;;;4913553;28;20177;-74
2023/06/28 10:34:53;;;;;;;13.13;9.02;;;;;;;;;;4902286;29;20052;-74
2023/06/28 10:37:22;;;;;;;11.05;8.40;;;;;;;;;;4893745;29;20431;-74
2023/06/28 10:39:52;;;;;;;15.70;9.43;;;;;;;;;;4903398;29;20151;-74
2023/06/28 10:42:22;;;;;;;10.80;8.18;;;;;;;;;;4909179;29;20047;-74
2023/06/28 10:44:57;;;;;;;17.77;7.80;;;;;;;;;;4907508;28;20063;-73
2023/06/28 10:47:24;;;;;;;14.50;8.82;;;;;;;;;;4906063;28;20055;-74
2023/06/28 10:50:05;;;;;;;13.20;8.45;;;;;;;;;;4921926;28;20043;-74
2023/06/28 10:52:31;;;;;;;14.25;8.95;;;;;;;;;;4904671;29;20047;-75
2023/06/28 10:54:58;;;;;;;13.18;9.88;;;;;;;;;;4901768;28;20055;-74
2023/06/28 10:57:36;;;;;;;16.80;11.45;;;;;;;;;;4904542;28;20529;-75
2023/06/28 11:00:05;;;;;;;12.88;9.20;;;;;;;;;;4921687;28;20094;-75
2023/06/28 11:02:51;;;;;;;14.43;10.15;;;;;;;;;;4903767;29;20506;-74
2023/06/28 11:05:36;;;;;;;14.35;9.68;;;;;;;;;;4902814;28;20958;-74
2023/06/28 11:08:09;;;;;;;14.10;10.43;;;;;;;;;;4905390;28;20523;-74
2023/06/28 11:10:42;;;;;;;13.48;9.57;;;;;;;;;;4904838;28;20053;-74
2023/06/28 11:13:09;;;;;;;19.80;10.48;;;;;;;;;;4904553;28;20043;-74
2023/06/28 11:15:35;;;;;;;15.07;9.82;;;;;;;;;;4908285;28;20074;-74
2023/06/28 11:18:10;;;;;;;14.57;10.98;;;;;;;;;;4924189;28;20050;-75
2023/06/28 11:20:56;;;;;;;14.73;11.38;;;;;;;;;;4907049;29;20059;-74
2023/06/28 11:23:23;;;;;;;18.40;11.85;;;;;;;;;;4924815;28;20070;-74
2023/06/28 11:25:55;;;;;;;15.05;11.35;;;;;;;;;;4907759;28;20059;-74
2023/06/28 11:28:28;;;;;;;12.68;11.00;;;;;;;;;;4910636;29;20066;-74
2023/06/28 11:30:54;;;;;;;12.35;10.48;;;;;;;;;;4892656;29;20197;-74
2023/06/28 11:33:21;;;;;;;15.00;11.35;;;;;;;;;;4913962;29;20651;-74
2023/06/28 11:35:48;;;;;;;16.77;11.82;;;;;;;;;;4908227;29;20071;-74
2023/06/28 11:38:14;;;;;;;16.17;12.27;;;;;;;;;;4910746;29;20038;-73
2023/06/28 11:40:40;;;;;;;14.80;12.60;;;;;;;;;;4911289;29;20051;-74
2023/06/28 11:43:07;;;;;;;16.85;13.60;;;;;;;;;;4912177;29;20047;-74
2023/06/28 11:45:33;;;;;;;19.27;13.48;;;;;;;;;;4926476;28;20058;-74
2023/06/28 11:47:59;;;;;;;19.15;13.43;;;;;;;;;;4913999;29;20130;-74
2023/06/28 11:50:25;;;;;;;19.63;12.93;;;;;;;;;;4900616;28;20055;-74
2023/06/28 11:52:52;;;;;;;21.13;14.57;;;;;;;;;;4909222;28;20047;-73
2023/06/28 11:55:19;;;;;;;23.25;15.98;;;;;;;;;;4911903;29;20098;-74
2023/06/28 11:57:46;;;;;;;22.42;15.43;;;;;;;;;;4912302;28;20695;-75
2023/06/28 12:00:17;;;;;;;20.77;14.70;;;;;;;;;;4911180;29;20073;-73
2023/06/28 12:02:47;;;;;;;27.98;17.15;;;;;;;;;;4929152;28;20065;-74
2023/06/28 12:05:13;;;;;;;27.20;17.08;;;;;;;;;;4929008;28;20166;-74
2023/06/28 12:07:39;;;;;;;23.50;16.85;;;;;;;;;;4929632;28;20043;-74
2023/06/28 12:10:06;;;;;;;27.00;17.73;;;;;;;;;;4910430;29;20036;-73
2023/06/28 12:12:33;;;;;;;37.15;17.75;;;;;;;;;;4912404;29;20047;-73
2023/06/28 12:14:59;;;;;;;30.52;19.25;;;;;;;;;;4928609;28;20079;-74
2023/06/28 12:17:25;;;;;;;25.92;18.45;;;;;;;;;;4909820;29;20066;-75
2023/06/28 12:19:54;;;;;;;26.98;18.33;;;;;;;;;;4927134;28;20127;-74
2023/06/28 12:22:20;;;;;;;28.98;18.80;;;;;;;;;;4926962;28;20142;-74
2023/06/28 12:24:47;;;;;;;29.67;19.25;;;;;;;;;;4907586;29;20127;-74
2023/06/28 12:27:13;;;;;;;28.80;18.83;;;;;;;;;;4916600;28;20051;-74
2023/06/28 12:29:42;;;;;;;31.98;20.25;;;;;;;;;;4908955;29;21997;-74
2023/06/28 12:32:11;;;;;;;28.15;18.52;;;;;;;;;;4913169;28;20043;-74
2023/06/28 12:34:38;;;;;;;31.30;18.40;;;;;;;;;;4895192;29;20048;-74
2023/06/28 12:37:11;;;;;;;27.85;18.63;;;;;;;;;;4907764;28;20054;-74
2023/06/28 12:39:38;;;;;;;26.63;18.47;;;;;;;;;;4908765;28;20146;-75
2023/06/28 12:42:08;;;;;;;29.63;18.95;;;;;;;;;;4911987;28;20050;-75
2023/06/28 12:44:53;;;;;;;28.20;18.55;;;;;;;;;;4911628;29;20495;-75
2023/06/28 12:47:20;;;;;;;28.35;18.10;;;;;;;;;;4908942;28;20058;-74
2023/06/28 12:49:47;;;;;;;25.75;17.40;;;;;;;;;;4910127;28;20054;-74
2023/06/28 12:52:13;;;;;;;31.77;18.83;;;;;;;;;;4909892;28;20395;-74
2023/06/28 12:54:39;;;;;;;28.40;19.30;;;;;;;;;;4908382;28;20106;-74
2023/06/28 12:57:06;;;;;;;35.38;19.25;;;;;;;;;;4909397;29;20062;-74
2023/06/28 12:59:36;;;;;;;25.08;17.77;;;;;;;;;;4903882;28;20047;-75
2023/06/28 13:02:02;;;;;;;31.00;18.65;;;;;;;;;;4908898;28;20044;-74
2023/06/28 13:04:32;;;;;;;25.90;18.08;;;;;;;;;;4927836;28;20040;-75
2023/06/28 13:06:58;;;;;;;26.27;18.08;;;;;;;;;;4916088;28;20067;-74
2023/06/28 13:09:24;;;;;;;24.63;18.48;;;;;;;;;;4915603;28;20051;-73
2023/06/28 13:11:50;;;;;;;27.23;18.88;;;;;;;;;;4903190;29;20059;-75
2023/06/28 13:14:16;;;;;;;28.65;19.42;;;;;;;;;;4915747;28;20070;-74
2023/06/28 13:16:43;;;;;;;27.35;18.48;;;;;;;;;;4932019;28;20499;-73
2023/06/28 13:19:09;;;;;;;26.20;19.23;;;;;;;;;;4907692;28;20039;-72
2023/06/28 13:21:35;;;;;;;26.30;18.63;;;;;;;;;;4912412;29;20078;-73
2023/06/28 13:24:03;;;;;;;26.55;18.75;;;;;;;;;;4912019;28;20083;-73
2023/06/28 13:26:30;;;;;;;27.80;19.63;;;;;;;;;;4930632;28;20056;-73
2023/06/28 13:28:56;;;;;;;25.35;18.20;;;;;;;;;;4910672;28;20095;-74
2023/06/28 13:31:22;;;;;;;20.77;16.00;;;;;;;;;;4910061;29;20523;-74
2023/06/28 13:33:48;;;;;;;24.08;17.60;;;;;;;;;;4908791;28;20097;-74
2023/06/28 13:36:14;;;;;;;19.80;16.30;;;;;;;;;;4901292;28;20106;-72
2023/06/28 13:38:40;;;;;;;20.63;16.98;;;;;;;;;;4923961;28;20036;-73
2023/06/28 13:41:06;;;;;;;22.58;16.50;;;;;;;;;;4909311;29;20051;-73
2023/06/28 13:43:32;;;;;;;19.77;17.05;;;;;;;;;;4900781;28;20058;-73
2023/06/28 13:45:59;;;;;;;21.83;16.90;;;;;;;;;;4900408;28;20051;-73
2023/06/28 13:48:25;;;;;;;18.77;16.48;;;;;;;;;;4911977;29;20199;-75
2023/06/28 13:50:51;;;;;;;22.25;17.55;;;;;;;;;;4925401;28;20062;-73
2023/06/28 13:53:17;;;;;;;22.30;16.65;;;;;;;;;;4925089;28;20051;-74
2023/06/28 13:55:43;;;;;;;19.48;16.17;;;;;;;;;;4891542;28;20060;-74
2023/06/28 13:58:09;;;;;;;22.52;17.77;;;;;;;;;;4908685;29;20071;-74
2023/06/28 14:00:35;;;;;;;24.27;15.85;;;;;;;;;;4892231;28;20154;-74
2023/06/28 14:03:02;;;;;;;21.13;16.38;;;;;;;;;;4907805;29;20043;-74
2023/06/28 14:05:28;;;;;;;20.58;16.77;;;;;;;;;;4907949;29;20152;-74
2023/06/28 14:07:54;;;;;;;19.20;15.93;;;;;;;;;;4908382;29;20059;-74
2023/06/28 14:10:20;;;;;;;19.23;16.10;;;;;;;;;;4908239;29;20499;-74
2023/06/28 14:12:46;;;;;;;16.52;14.80;;;;;;;;;;4907123;28;20080;-74
2023/06/28 14:15:12;;;;;;;17.55;15.75;;;;;;;;;;4924659;28;20058;-74
2023/06/28 14:17:38;;;;;;;19.50;15.73;;;;;;;;;;4925224;28;20062;-74
2023/06/28 14:20:05;;;;;;;19.27;15.60;;;;;;;;;;4907133;29;20047;-73
2023/06/28 14:22:32;;;;;;;19.65;15.05;;;;;;;;;;4907536;28;20066;-75
2023/06/28 14:24:58;;;;;;;19.50;15.55;;;;;;;;;;4898888;29;20810;-74
2023/06/28 14:27:24;;;;;;;18.55;16.52;;;;;;;;;;4908147;28;20493;-74